sensor_id;sensor_type;location;lat;lon;timestamp;pressure;altitude;pressure_sealevel;temperature;humidity
59654;BME280;66556;52.008;5.432;2023-03-04T00:00:09;102678.0;;;14.55;43.92
59654;BME280;66556;52.008;5.432;2023-03-04T00:03:22;102690.00000000001;;;14.44;44.18
59654;BME280;66556;52.008;5.432;2023-03-04T00:04:58;102690.00000000001;;;14.26;44.7
59654;BME280;66556;52.008;5.432;2023-03-04T00:06:35;102692.0;;;14.22;44.74
59654;BME280;66556;52.008;5.432;2023-03-04T00:09:47;102692.0;;;14.23;44.54
59654;BME280;66556;52.008;5.432;2023-03-04T00:11:23;102692.0;;;14.08;45.15
59654;BME280;66556;52.008;5.432;2023-03-04T00:12:59;102692.0;;;14.22;44.77
59654;BME280;66556;52.008;5.432;2023-03-04T00:16:12;102693.0;;;14.12;44.91
59654;BME280;66556;52.008;5.432;2023-03-04T00:17:48;102689.00000000001;;;14.02;44.88
59654;BME280;66556;52.008;5.432;2023-03-04T00:19:24;102692.0;;;13.58;45.59
59654;BME280;66556;52.008;5.432;2023-03-04T00:21:00;102690.00000000001;;;13.79;45.2
59654;BME280;66556;52.008;5.432;2023-03-04T00:24:12;102693.0;;;13.8;44.98
59654;BME280;66556;52.008;5.432;2023-03-04T00:25:48;102691.00000000001;;;13.7;45.4
59654;BME280;66556;52.008;5.432;2023-03-04T00:27:25;102683.0;;;13.95;45.22
59654;BME280;66556;52.008;5.432;2023-03-04T00:30:37;102690.00000000001;;;13.76;45.3
59654;BME280;66556;52.008;5.432;2023-03-04T00:32:13;102683.99999999999;;;14.02;44.98
59654;BME280;66556;52.008;5.432;2023-03-04T00:33:49;102686.99999999999;;;14.02;44.76
59654;BME280;66556;52.008;5.432;2023-03-04T00:37:01;102683.99999999999;;;14.02;45.19
59654;BME280;66556;52.008;5.432;2023-03-04T00:38:38;102683.99999999999;;;14.03;44.8
59654;BME280;66556;52.008;5.432;2023-03-04T00:40:14;102690.00000000001;;;13.83;45.42
59654;BME280;66556;52.008;5.432;2023-03-04T00:43:26;102688.00000000001;;;13.75;45.79
59654;BME280;66556;52.008;5.432;2023-03-04T00:45:03;102684.99999999999;;;13.9;45.34
59654;BME280;66556;52.008;5.432;2023-03-04T00:46:39;102684.99999999999;;;13.86;45.41
59654;BME280;66556;52.008;5.432;2023-03-04T00:48:15;102690.00000000001;;;14.0;45.39
59654;BME280;66556;52.008;5.432;2023-03-04T00:51:28;102692.0;;;14.12;45.19
59654;BME280;66556;52.008;5.432;2023-03-04T00:53:04;102690.00000000001;;;14.12;45.0
59654;BME280;66556;52.008;5.432;2023-03-04T00:54:41;102695.0;;;14.09;45.01
59654;BME280;66556;52.008;5.432;2023-03-04T00:57:53;102693.0;;;13.86;45.86
59654;BME280;66556;52.008;5.432;2023-03-04T00:59:29;102692.0;;;13.76;46.52
59654;BME280;66556;52.008;5.432;2023-03-04T01:01:05;102688.00000000001;;;13.73;46.25
59654;BME280;66556;52.008;5.432;2023-03-04T01:04:19;102689.00000000001;;;13.66;46.58
59654;BME280;66556;52.008;5.432;2023-03-04T01:05:55;102690.00000000001;;;13.99;45.79
59654;BME280;66556;52.008;5.432;2023-03-04T01:07:31;102682.0;;;14.08;45.39
59654;BME280;66556;52.008;5.432;2023-03-04T01:09:07;102686.99999999999;;;14.08;45.65
59654;BME280;66556;52.008;5.432;2023-03-04T01:12:19;102689.00000000001;;;13.83;46.31
59654;BME280;66556;52.008;5.432;2023-03-04T01:13:56;102689.00000000001;;;13.87;46.7
59654;BME280;66556;52.008;5.432;2023-03-04T01:15:32;102692.0;;;13.85;46.56
59654;BME280;66556;52.008;5.432;2023-03-04T01:18:44;102688.00000000001;;;13.78;46.94
59654;BME280;66556;52.008;5.432;2023-03-04T01:20:20;102692.0;;;13.97;46.19
59654;BME280;66556;52.008;5.432;2023-03-04T01:21:57;102690.00000000001;;;13.61;47.03
59654;BME280;66556;52.008;5.432;2023-03-04T01:25:09;102690.00000000001;;;13.81;46.63
59654;BME280;66556;52.008;5.432;2023-03-04T01:26:46;102683.0;;;14.19;45.86
59654;BME280;66556;52.008;5.432;2023-03-04T01:28:23;102683.0;;;13.99;46.06
59654;BME280;66556;52.008;5.432;2023-03-04T01:31:35;102683.0;;;13.8;46.56
59654;BME280;66556;52.008;5.432;2023-03-04T01:33:11;102681.0;;;13.9;46.45
59654;BME280;66556;52.008;5.432;2023-03-04T01:34:47;102676.0;;;13.8;46.01
59654;BME280;66556;52.008;5.432;2023-03-04T01:36:24;102674.0;;;14.04;45.99
59654;BME280;66556;52.008;5.432;2023-03-04T01:39:36;102667.0;;;14.02;45.99
59654;BME280;66556;52.008;5.432;2023-03-04T01:41:13;102668.0;;;13.88;46.31
59654;BME280;66556;52.008;5.432;2023-03-04T01:42:52;102663.00000000001;;;13.91;46.37
59654;BME280;66556;52.008;5.432;2023-03-04T01:46:05;102659.99999999999;;;13.97;46.44
59654;BME280;66556;52.008;5.432;2023-03-04T01:47:43;102653.0;;;14.1;45.86
59654;BME280;66556;52.008;5.432;2023-03-04T01:49:22;102656.0;;;13.88;46.41
59654;BME280;66556;52.008;5.432;2023-03-04T01:50:58;102655.0;;;13.5;47.53
59654;BME280;66556;52.008;5.432;2023-03-04T01:54:20;102649.0;;;13.74;47.21
59654;BME280;66556;52.008;5.432;2023-03-04T01:56:00;102653.0;;;13.95;46.56
59654;BME280;66556;52.008;5.432;2023-03-04T01:57:38;102650.0;;;13.79;46.36
59654;BME280;66556;52.008;5.432;2023-03-04T02:00:54;102650.0;;;14.19;45.5
59654;BME280;66556;52.008;5.432;2023-03-04T02:02:31;102642.0;;;13.74;46.88
59654;BME280;66556;52.008;5.432;2023-03-04T02:04:07;102642.0;;;13.77;46.44
59654;BME280;66556;52.008;5.432;2023-03-04T02:05:48;102638.00000000001;;;13.92;45.49
59654;BME280;66556;52.008;5.432;2023-03-04T02:09:00;102636.99999999999;;;13.22;46.66
59654;BME280;66556;52.008;5.432;2023-03-04T02:10:37;102638.00000000001;;;13.63;46.2
59654;BME280;66556;52.008;5.432;2023-03-04T02:12:14;102629.0;;;13.46;46.28
59654;BME280;66556;52.008;5.432;2023-03-04T02:15:28;102633.0;;;13.65;45.77
59654;BME280;66556;52.008;5.432;2023-03-04T02:17:09;102630.0;;;14.08;44.87
59654;BME280;66556;52.008;5.432;2023-03-04T02:18:45;102629.0;;;14.36;44.08
59654;BME280;66556;52.008;5.432;2023-03-04T02:20:29;102631.0;;;14.04;44.84
59654;BME280;66556;52.008;5.432;2023-03-04T02:23:56;102624.0;;;14.33;44.2
59654;BME280;66556;52.008;5.432;2023-03-04T02:25:40;102624.0;;;14.23;44.01
59654;BME280;66556;52.008;5.432;2023-03-04T02:27:20;102618.0;;;14.21;43.94
59654;BME280;66556;52.008;5.432;2023-03-04T02:28:57;102617.0;;;13.8;44.67
59654;BME280;66556;52.008;5.432;2023-03-04T02:32:12;102617.0;;;13.71;44.92
59654;BME280;66556;52.008;5.432;2023-03-04T02:33:49;102617.0;;;13.85;44.66
59654;BME280;66556;52.008;5.432;2023-03-04T02:35:26;102616.00000000001;;;13.73;45.09
59654;BME280;66556;52.008;5.432;2023-03-04T02:37:02;102618.0;;;13.74;45.38
59654;BME280;66556;52.008;5.432;2023-03-04T02:40:20;102617.0;;;13.8;44.9
59654;BME280;66556;52.008;5.432;2023-03-04T02:42:01;102616.00000000001;;;13.56;45.67
59654;BME280;66556;52.008;5.432;2023-03-04T02:43:37;102608.99999999999;;;13.6;45.73
59654;BME280;66556;52.008;5.432;2023-03-04T02:47:13;102607.0;;;13.44;45.9
59654;BME280;66556;52.008;5.432;2023-03-04T02:48:49;102607.0;;;13.65;45.64
59654;BME280;66556;52.008;5.432;2023-03-04T02:50:27;102602.0;;;13.86;44.94
59654;BME280;66556;52.008;5.432;2023-03-04T02:52:09;102601.0;;;13.92;44.7
59654;BME280;66556;52.008;5.432;2023-03-04T02:53:47;102597.0;;;13.86;44.54
59654;BME280;66556;52.008;5.432;2023-03-04T02:57:01;102597.0;;;13.7;44.84
59654;BME280;66556;52.008;5.432;2023-03-04T02:58:39;102596.0;;;13.78;44.58
59654;BME280;66556;52.008;5.432;2023-03-04T03:00:15;102597.0;;;13.88;44.49
59654;BME280;66556;52.008;5.432;2023-03-04T03:03:28;102592.0;;;14.2;43.75
59654;BME280;66556;52.008;5.432;2023-03-04T03:05:05;102590.00000000001;;;14.22;44.18
59654;BME280;66556;52.008;5.432;2023-03-04T03:06:42;102590.00000000001;;;13.96;44.52
59654;BME280;66556;52.008;5.432;2023-03-04T03:09:55;102594.0;;;14.35;43.63
59654;BME280;66556;52.008;5.432;2023-03-04T03:11:31;102589.00000000001;;;14.1;44.03
59654;BME280;66556;52.008;5.432;2023-03-04T03:13:07;102590.00000000001;;;14.04;44.2
59654;BME280;66556;52.008;5.432;2023-03-04T03:14:43;102583.0;;;14.2;43.69
59654;BME280;66556;52.008;5.432;2023-03-04T03:17:56;102586.99999999999;;;14.24;43.29
59654;BME280;66556;52.008;5.432;2023-03-04T03:19:32;102581.0;;;14.17;43.69
59654;BME280;66556;52.008;5.432;2023-03-04T03:21:09;102584.99999999999;;;14.22;43.85
59654;BME280;66556;52.008;5.432;2023-03-04T03:24:22;102583.0;;;14.04;44.11
59654;BME280;66556;52.008;5.432;2023-03-04T03:25:58;102581.0;;;14.03;44.22
59654;BME280;66556;52.008;5.432;2023-03-04T03:27:35;102579.0;;;13.94;44.12
59654;BME280;66556;52.008;5.432;2023-03-04T03:30:47;102583.99999999999;;;13.77;44.13
59654;BME280;66556;52.008;5.432;2023-03-04T03:32:23;102584.99999999999;;;13.85;44.39
59654;BME280;66556;52.008;5.432;2023-03-04T03:33:59;102578.0;;;14.01;43.89
59654;BME280;66556;52.008;5.432;2023-03-04T03:35:35;102581.0;;;13.79;43.7
59654;BME280;66556;52.008;5.432;2023-03-04T03:38:48;102568.0;;;13.93;43.83
59654;BME280;66556;52.008;5.432;2023-03-04T03:40:25;102572.0;;;14.04;43.41
59654;BME280;66556;52.008;5.432;2023-03-04T03:42:01;102570.0;;;14.11;43.4
59654;BME280;66556;52.008;5.432;2023-03-04T03:45:13;102572.0;;;13.67;44.07
59654;BME280;66556;52.008;5.432;2023-03-04T03:46:49;102574.0;;;13.74;44.23
59654;BME280;66556;52.008;5.432;2023-03-04T03:48:25;102574.0;;;13.66;44.39
59654;BME280;66556;52.008;5.432;2023-03-04T03:51:38;102571.0;;;14.15;43.03
59654;BME280;66556;52.008;5.432;2023-03-04T03:53:15;102572.0;;;14.14;43.3
59654;BME280;66556;52.008;5.432;2023-03-04T03:54:51;102570.0;;;14.13;43.19
59654;BME280;66556;52.008;5.432;2023-03-04T03:58:03;102577.0;;;13.69;43.8
59654;BME280;66556;52.008;5.432;2023-03-04T03:59:39;102577.0;;;13.75;43.79
59654;BME280;66556;52.008;5.432;2023-03-04T04:01:15;102574.0;;;13.84;43.62
59654;BME280;66556;52.008;5.432;2023-03-04T04:02:53;102571.0;;;14.06;43.46
59654;BME280;66556;52.008;5.432;2023-03-04T04:06:06;102573.0;;;14.13;42.84
59654;BME280;66556;52.008;5.432;2023-03-04T04:07:42;102574.0;;;14.09;43.18
59654;BME280;66556;52.008;5.432;2023-03-04T04:09:18;102572.0;;;14.12;43.34
59654;BME280;66556;52.008;5.432;2023-03-04T04:12:31;102576.0;;;13.88;43.72
59654;BME280;66556;52.008;5.432;2023-03-04T04:14:08;102582.0;;;13.76;44.44
59654;BME280;66556;52.008;5.432;2023-03-04T04:15:46;102578.0;;;13.82;44.16
59654;BME280;66556;52.008;5.432;2023-03-04T04:18:58;102577.0;;;13.93;43.96
59654;BME280;66556;52.008;5.432;2023-03-04T04:20:34;102583.0;;;13.8;44.35
59654;BME280;66556;52.008;5.432;2023-03-04T04:22:13;102583.99999999999;;;13.79;44.81
59654;BME280;66556;52.008;5.432;2023-03-04T04:23:50;102583.99999999999;;;13.42;45.88
59654;BME280;66556;52.008;5.432;2023-03-04T04:27:03;102582.0;;;13.83;45.68
59654;BME280;66556;52.008;5.432;2023-03-04T04:28:40;102588.00000000001;;;14.08;44.77
59654;BME280;66556;52.008;5.432;2023-03-04T04:30:16;102588.00000000001;;;13.9;45.57
59654;BME280;66556;52.008;5.432;2023-03-04T04:33:28;102586.99999999999;;;13.93;45.68
59654;BME280;66556;52.008;5.432;2023-03-04T04:35:06;102586.99999999999;;;13.92;45.98
59654;BME280;66556;52.008;5.432;2023-03-04T04:36:43;102592.0;;;13.78;46.26
59654;BME280;66556;52.008;5.432;2023-03-04T04:38:19;102586.99999999999;;;13.93;46.0
59654;BME280;66556;52.008;5.432;2023-03-04T04:41:35;102591.00000000001;;;13.75;46.51
59654;BME280;66556;52.008;5.432;2023-03-04T04:43:12;102590.00000000001;;;13.61;46.76
59654;BME280;66556;52.008;5.432;2023-03-04T04:44:48;102589.00000000001;;;13.88;46.03
59654;BME280;66556;52.008;5.432;2023-03-04T04:48:02;102588.00000000001;;;13.85;46.25
59654;BME280;66556;52.008;5.432;2023-03-04T04:49:38;102586.99999999999;;;13.8;45.99
59654;BME280;66556;52.008;5.432;2023-03-04T04:51:14;102590.00000000001;;;13.84;45.91
59654;BME280;66556;52.008;5.432;2023-03-04T04:54:27;102584.99999999999;;;13.89;45.6
59654;BME280;66556;52.008;5.432;2023-03-04T04:56:08;102588.00000000001;;;13.88;45.83
59654;BME280;66556;52.008;5.432;2023-03-04T04:57:49;102588.00000000001;;;13.72;46.39
59654;BME280;66556;52.008;5.432;2023-03-04T04:59:26;102583.0;;;13.45;46.75
59654;BME280;66556;52.008;5.432;2023-03-04T05:02:39;102592.0;;;13.51;46.7
59654;BME280;66556;52.008;5.432;2023-03-04T05:04:15;102591.00000000001;;;13.75;46.29
59654;BME280;66556;52.008;5.432;2023-03-04T05:05:51;102579.0;;;13.96;45.61
59654;BME280;66556;52.008;5.432;2023-03-04T05:09:03;102586.99999999999;;;13.81;46.17
59654;BME280;66556;52.008;5.432;2023-03-04T05:10:40;102583.99999999999;;;14.0;45.4
59654;BME280;66556;52.008;5.432;2023-03-04T05:12:16;102581.0;;;14.09;45.15
59654;BME280;66556;52.008;5.432;2023-03-04T05:15:29;102584.99999999999;;;13.9;45.17
59654;BME280;66556;52.008;5.432;2023-03-04T05:17:05;102589.00000000001;;;13.78;45.72
59654;BME280;66556;52.008;5.432;2023-03-04T05:18:42;102579.0;;;13.9;45.59
59654;BME280;66556;52.008;5.432;2023-03-04T05:20:17;102582.0;;;13.89;45.42
59654;BME280;66556;52.008;5.432;2023-03-04T05:23:32;102583.99999999999;;;13.9;45.41
59654;BME280;66556;52.008;5.432;2023-03-04T05:25:09;102592.0;;;13.62;46.23
59654;BME280;66556;52.008;5.432;2023-03-04T05:26:45;102589.00000000001;;;13.62;45.96
59654;BME280;66556;52.008;5.432;2023-03-04T05:29:58;102589.00000000001;;;13.62;45.97
59654;BME280;66556;52.008;5.432;2023-03-04T05:31:35;102592.0;;;13.69;46.08
59654;BME280;66556;52.008;5.432;2023-03-04T05:33:13;102588.00000000001;;;13.61;46.36
59654;BME280;66556;52.008;5.432;2023-03-04T05:34:50;102597.0;;;13.43;46.98
59654;BME280;66556;52.008;5.432;2023-03-04T05:38:02;102592.0;;;13.55;46.88
59654;BME280;66556;52.008;5.432;2023-03-04T05:39:39;102593.0;;;13.53;46.9
59654;BME280;66556;52.008;5.432;2023-03-04T05:41:16;102596.0;;;13.62;46.62
59654;BME280;66556;52.008;5.432;2023-03-04T05:44:28;102596.0;;;13.58;46.64
59654;BME280;66556;52.008;5.432;2023-03-04T05:46:04;102590.00000000001;;;13.65;46.86
59654;BME280;66556;52.008;5.432;2023-03-04T05:47:40;102589.00000000001;;;13.62;46.97
59654;BME280;66556;52.008;5.432;2023-03-04T05:50:53;102583.0;;;13.94;45.94
59654;BME280;66556;52.008;5.432;2023-03-04T05:52:29;102592.0;;;13.63;47.01
59654;BME280;66556;52.008;5.432;2023-03-04T05:54:06;102592.0;;;13.69;46.97
59654;BME280;66556;52.008;5.432;2023-03-04T05:57:21;102593.0;;;13.74;46.83
59654;BME280;66556;52.008;5.432;2023-03-04T05:58:57;102584.99999999999;;;13.65;46.95
59654;BME280;66556;52.008;5.432;2023-03-04T06:00:34;102589.00000000001;;;13.67;47.06
59654;BME280;66556;52.008;5.432;2023-03-04T06:02:10;102589.00000000001;;;13.72;46.9
59654;BME280;66556;52.008;5.432;2023-03-04T06:05:23;102583.99999999999;;;13.64;47.09
59654;BME280;66556;52.008;5.432;2023-03-04T06:06:59;102586.99999999999;;;13.96;46.51
59654;BME280;66556;52.008;5.432;2023-03-04T06:08:35;102592.0;;;13.77;47.09
59654;BME280;66556;52.008;5.432;2023-03-04T06:11:50;102591.00000000001;;;13.8;47.11
59654;BME280;66556;52.008;5.432;2023-03-04T06:13:27;102591.00000000001;;;14.01;46.61
59654;BME280;66556;52.008;5.432;2023-03-04T06:15:03;102590.00000000001;;;14.02;46.49
59654;BME280;66556;52.008;5.432;2023-03-04T06:16:40;102592.0;;;14.07;46.57
59654;BME280;66556;52.008;5.432;2023-03-04T06:19:52;102594.0;;;13.88;47.12
59654;BME280;66556;52.008;5.432;2023-03-04T06:21:28;102592.0;;;13.84;47.49
59654;BME280;66556;52.008;5.432;2023-03-04T06:23:05;102591.00000000001;;;13.83;47.52
59654;BME280;66556;52.008;5.432;2023-03-04T06:26:18;102591.00000000001;;;13.83;47.51
59654;BME280;66556;52.008;5.432;2023-03-04T06:27:54;102593.0;;;13.93;47.32
59654;BME280;66556;52.008;5.432;2023-03-04T06:29:30;102597.0;;;13.89;47.71
59654;BME280;66556;52.008;5.432;2023-03-04T06:32:43;102593.0;;;13.98;47.78
59654;BME280;66556;52.008;5.432;2023-03-04T06:34:20;102593.0;;;13.91;47.64
59654;BME280;66556;52.008;5.432;2023-03-04T06:35:56;102594.0;;;14.12;47.26
59654;BME280;66556;52.008;5.432;2023-03-04T06:39:09;102596.0;;;13.93;47.76
59654;BME280;66556;52.008;5.432;2023-03-04T06:40:45;102594.0;;;13.96;48.11
59654;BME280;66556;52.008;5.432;2023-03-04T06:42:21;102595.0;;;14.01;48.08
59654;BME280;66556;52.008;5.432;2023-03-04T06:43:57;102597.0;;;14.03;47.97
59654;BME280;66556;52.008;5.432;2023-03-04T06:47:09;102593.0;;;13.93;48.29
59654;BME280;66556;52.008;5.432;2023-03-04T06:48:45;102593.0;;;14.18;48.21
59654;BME280;66556;52.008;5.432;2023-03-04T06:50:22;102597.0;;;14.04;48.07
59654;BME280;66556;52.008;5.432;2023-03-04T06:53:36;102594.0;;;14.09;48.03
59654;BME280;66556;52.008;5.432;2023-03-04T06:55:12;102600.0;;;14.01;48.63
59654;BME280;66556;52.008;5.432;2023-03-04T06:56:48;102597.0;;;14.08;48.78
59654;BME280;66556;52.008;5.432;2023-03-04T07:00:01;102595.0;;;14.02;48.95
59654;BME280;66556;52.008;5.432;2023-03-04T07:01:37;102600.0;;;13.94;49.54
59654;BME280;66556;52.008;5.432;2023-03-04T07:03:13;102602.0;;;14.11;48.93
59654;BME280;66556;52.008;5.432;2023-03-04T07:04:49;102604.0;;;14.15;49.0
59654;BME280;66556;52.008;5.432;2023-03-04T07:08:03;102604.0;;;14.06;49.36
59654;BME280;66556;52.008;5.432;2023-03-04T07:09:39;102608.0;;;14.16;49.01
59654;BME280;66556;52.008;5.432;2023-03-04T07:11:17;102605.0;;;14.17;48.85
59654;BME280;66556;52.008;5.432;2023-03-04T07:14:31;102603.0;;;13.91;50.09
59654;BME280;66556;52.008;5.432;2023-03-04T07:16:09;102607.0;;;13.95;50.15
59654;BME280;66556;52.008;5.432;2023-03-04T07:17:47;102604.0;;;13.98;50.02
59654;BME280;66556;52.008;5.432;2023-03-04T07:19:24;102606.0;;;14.09;49.56
59654;BME280;66556;52.008;5.432;2023-03-04T07:22:36;102613.00000000001;;;13.93;50.28
59654;BME280;66556;52.008;5.432;2023-03-04T07:24:12;102614.00000000001;;;13.98;50.17
59654;BME280;66556;52.008;5.432;2023-03-04T07:25:49;102611.99999999999;;;14.15;49.67
59654;BME280;66556;52.008;5.432;2023-03-04T07:29:03;102614.00000000001;;;14.16;49.91
59654;BME280;66556;52.008;5.432;2023-03-04T07:30:39;102619.0;;;14.19;50.14
59654;BME280;66556;52.008;5.432;2023-03-04T07:32:16;102614.00000000001;;;14.22;50.0
59654;BME280;66556;52.008;5.432;2023-03-04T07:35:32;102621.0;;;14.25;49.61
59654;BME280;66556;52.008;5.432;2023-03-04T07:37:08;102620.0;;;13.97;50.84
59654;BME280;66556;52.008;5.432;2023-03-04T07:38:44;102623.0;;;14.01;51.73
59654;BME280;66556;52.008;5.432;2023-03-04T07:40:21;102621.0;;;14.08;51.8
59654;BME280;66556;52.008;5.432;2023-03-04T07:43:35;102620.0;;;14.22;51.36
59654;BME280;66556;52.008;5.432;2023-03-04T07:45:11;102620.0;;;14.33;52.1
59654;BME280;66556;52.008;5.432;2023-03-04T07:46:47;102625.0;;;14.46;51.07
59654;BME280;66556;52.008;5.432;2023-03-04T07:50:00;102625.0;;;14.66;50.32
59654;BME280;66556;52.008;5.432;2023-03-04T07:51:36;102630.0;;;14.83;49.76
59654;BME280;66556;52.008;5.432;2023-03-04T07:53:13;102628.0;;;14.74;50.3
59654;BME280;66556;52.008;5.432;2023-03-04T07:56:27;102629.0;;;14.88;49.17
59654;BME280;66556;52.008;5.432;2023-03-04T07:58:04;102628.0;;;14.9;49.47
59654;BME280;66556;52.008;5.432;2023-03-04T07:59:40;102636.99999999999;;;15.01;49.34
59654;BME280;66556;52.008;5.432;2023-03-04T08:01:19;102633.99999999999;;;14.81;49.26
59654;BME280;66556;52.008;5.432;2023-03-04T08:04:32;102633.99999999999;;;14.37;50.65
59654;BME280;66556;52.008;5.432;2023-03-04T08:06:10;102633.99999999999;;;14.87;49.66
59654;BME280;66556;52.008;5.432;2023-03-04T08:07:47;102636.99999999999;;;14.97;49.44
59654;BME280;66556;52.008;5.432;2023-03-04T08:11:03;102640.00000000001;;;15.19;49.24
59654;BME280;66556;52.008;5.432;2023-03-04T08:12:39;102639.00000000001;;;15.34;48.98
59654;BME280;66556;52.008;5.432;2023-03-04T08:14:16;102639.00000000001;;;15.38;48.43
59654;BME280;66556;52.008;5.432;2023-03-04T08:17:31;102639.00000000001;;;15.39;48.16
59654;BME280;66556;52.008;5.432;2023-03-04T08:19:07;102640.00000000001;;;15.47;48.47
59654;BME280;66556;52.008;5.432;2023-03-04T08:20:44;102641.00000000001;;;15.74;47.0
59654;BME280;66556;52.008;5.432;2023-03-04T08:22:21;102643.0;;;15.67;48.24
59654;BME280;66556;52.008;5.432;2023-03-04T08:25:38;102640.00000000001;;;15.41;48.52
59654;BME280;66556;52.008;5.432;2023-03-04T08:27:14;102642.0;;;15.47;47.52
59654;BME280;66556;52.008;5.432;2023-03-04T08:28:51;102643.0;;;15.5;47.83
59654;BME280;66556;52.008;5.432;2023-03-04T08:32:04;102643.0;;;15.5;48.03
59654;BME280;66556;52.008;5.432;2023-03-04T08:33:39;102642.0;;;15.53;48.08
59654;BME280;66556;52.008;5.432;2023-03-04T08:35:16;102647.0;;;15.67;48.13
59654;BME280;66556;52.008;5.432;2023-03-04T08:36:52;102646.0;;;15.71;47.14
59654;BME280;66556;52.008;5.432;2023-03-04T08:40:06;102651.0;;;15.49;48.31
59654;BME280;66556;52.008;5.432;2023-03-04T08:41:44;102650.0;;;15.23;49.72
59654;BME280;66556;52.008;5.432;2023-03-04T08:43:22;102656.0;;;15.36;49.72
59654;BME280;66556;52.008;5.432;2023-03-04T08:46:36;102655.0;;;15.33;51.19
59654;BME280;66556;52.008;5.432;2023-03-04T08:48:13;102654.0;;;15.32;51.98
59654;BME280;66556;52.008;5.432;2023-03-04T08:49:52;102651.0;;;15.57;52.33
59654;BME280;66556;52.008;5.432;2023-03-04T08:51:28;102649.0;;;15.5;52.46
59654;BME280;66556;52.008;5.432;2023-03-04T08:54:40;102649.0;;;15.53;52.0
59654;BME280;66556;52.008;5.432;2023-03-04T08:56:17;102649.0;;;15.68;51.41
59654;BME280;66556;52.008;5.432;2023-03-04T08:57:54;102648.0;;;15.82;50.61
59654;BME280;66556;52.008;5.432;2023-03-04T09:01:07;102645.0;;;15.8;50.96
59654;BME280;66556;52.008;5.432;2023-03-04T09:02:44;102639.00000000001;;;15.98;50.28
59654;BME280;66556;52.008;5.432;2023-03-04T09:04:20;102643.0;;;15.81;50.08
59654;BME280;66556;52.008;5.432;2023-03-04T09:07:32;102632.0;;;16.0;48.77
59654;BME280;66556;52.008;5.432;2023-03-04T09:09:09;102630.0;;;15.92;48.1
59654;BME280;66556;52.008;5.432;2023-03-04T09:10:46;102628.0;;;16.2;47.31
59654;BME280;66556;52.008;5.432;2023-03-04T09:12:22;102631.0;;;16.18;46.76
59654;BME280;66556;52.008;5.432;2023-03-04T09:15:34;102640.00000000001;;;16.14;47.04
59654;BME280;66556;52.008;5.432;2023-03-04T09:17:10;102632.0;;;16.13;47.08
59654;BME280;66556;52.008;5.432;2023-03-04T09:18:47;102634.99999999999;;;16.11;47.3
59654;BME280;66556;52.008;5.432;2023-03-04T09:21:59;102634.99999999999;;;15.91;49.21
59654;BME280;66556;52.008;5.432;2023-03-04T09:23:36;102639.00000000001;;;15.96;49.63
59654;BME280;66556;52.008;5.432;2023-03-04T09:25:14;102641.00000000001;;;15.63;51.4
59654;BME280;66556;52.008;5.432;2023-03-04T09:28:26;102639.00000000001;;;15.7;51.35
59654;BME280;66556;52.008;5.432;2023-03-04T09:30:03;102632.0;;;15.56;52.07
59654;BME280;66556;52.008;5.432;2023-03-04T09:31:40;102634.99999999999;;;15.74;52.06
59654;BME280;66556;52.008;5.432;2023-03-04T09:34:53;102632.0;;;15.96;52.25
59654;BME280;66556;52.008;5.432;2023-03-04T09:36:29;102626.0;;;16.23;51.88
59654;BME280;66556;52.008;5.432;2023-03-04T09:38:06;102629.0;;;16.47;52.07
59654;BME280;66556;52.008;5.432;2023-03-04T09:39:43;102625.0;;;16.55;50.72
59654;BME280;66556;52.008;5.432;2023-03-04T09:43:01;102624.0;;;17.05;51.18
59654;BME280;66556;52.008;5.432;2023-03-04T09:44:40;102622.0;;;16.93;48.27
59654;BME280;66556;52.008;5.432;2023-03-04T09:46:21;102623.0;;;17.05;47.83
59654;BME280;66556;52.008;5.432;2023-03-04T09:48:04;102620.0;;;16.7;48.27
59654;BME280;66556;52.008;5.432;2023-03-04T09:51:40;102617.0;;;16.84;47.95
59654;BME280;66556;52.008;5.432;2023-03-04T09:53:23;102617.0;;;16.54;48.99
59654;BME280;66556;52.008;5.432;2023-03-04T09:55:14;102617.0;;;16.57;48.99
59654;BME280;66556;52.008;5.432;2023-03-04T09:56:59;102613.00000000001;;;16.59;49.8
59654;BME280;66556;52.008;5.432;2023-03-04T09:58:48;102608.99999999999;;;16.54;50.26
59654;BME280;66556;52.008;5.432;2023-03-04T10:02:17;102608.0;;;16.52;51.32
59654;BME280;66556;52.008;5.432;2023-03-04T10:03:58;102608.99999999999;;;16.77;50.73
59654;BME280;66556;52.008;5.432;2023-03-04T10:05:41;102603.0;;;16.59;49.58
59654;BME280;66556;52.008;5.432;2023-03-04T10:07:23;102615.00000000001;;;16.63;49.62
59654;BME280;66556;52.008;5.432;2023-03-04T10:09:13;102613.00000000001;;;17.09;49.13
59654;BME280;66556;52.008;5.432;2023-03-04T10:12:33;102608.0;;;17.14;48.65
59654;BME280;66556;52.008;5.432;2023-03-04T10:14:28;102608.99999999999;;;17.16;48.21
59654;BME280;66556;52.008;5.432;2023-03-04T10:16:14;102604.0;;;17.05;47.7
59654;BME280;66556;52.008;5.432;2023-03-04T10:17:58;102602.0;;;16.93;47.86
59654;BME280;66556;52.008;5.432;2023-03-04T10:19:48;102600.0;;;16.86;48.18
59654;BME280;66556;52.008;5.432;2023-03-04T10:21:31;102599.0;;;17.32;48.62
59654;BME280;66556;52.008;5.432;2023-03-04T10:24:55;102599.0;;;17.55;47.01
59654;BME280;66556;52.008;5.432;2023-03-04T10:26:32;102602.0;;;17.82;45.95
59654;BME280;66556;52.008;5.432;2023-03-04T10:28:11;102600.0;;;17.5;44.82
59654;BME280;66556;52.008;5.432;2023-03-04T10:29:51;102599.0;;;17.55;44.68
59654;BME280;66556;52.008;5.432;2023-03-04T10:33:12;102602.0;;;17.59;44.91
59654;BME280;66556;52.008;5.432;2023-03-04T10:34:48;102596.0;;;17.55;45.71